sensor_id;sensor_type;location;lat;lon;timestamp;pressure;altitude;pressure_sealevel;temperature;humidity
44920;BME280;30655;53.094;6.072;2022-11-30T00:02:07;102403.19;;;5.38;100.00
44920;BME280;30655;53.094;6.072;2022-11-30T00:04:54;102413.66;;;5.33;100.00
44920;BME280;30655;53.094;6.072;2022-11-30T00:07:33;102272.69;;;4.34;100.00
44920;BME280;30655;53.094;6.072;2022-11-30T00:10:22;102241.22;;;4.15;100.00
44920;BME280;30655;53.094;6.072;2022-11-30T00:12:50;102238.28;;;4.10;100.00
44920;BME280;30655;53.094;6.072;2022-11-30T00:15:49;102371.50;;;4.93;100.00
44920;BME280;30655;53.094;6.072;2022-11-30T00:18:29;102251.56;;;4.18;100.00
44920;BME280;30655;53.094;6.072;2022-11-30T00:21:29;102436.28;;;5.24;100.00
44920;BME280;30655;53.094;6.072;2022-11-30T00:24:18;102312.25;;;4.39;100.00
44920;BME280;30655;53.094;6.072;2022-11-30T00:26:52;102443.72;;;5.29;100.00
44920;BME280;30655;53.094;6.072;2022-11-30T00:29:32;102225.88;;;4.02;100.00
44920;BME280;30655;53.094;6.072;2022-11-30T00:32:09;102353.00;;;4.76;100.00
44920;BME280;30655;53.094;6.072;2022-11-30T00:34:36;102352.09;;;4.91;100.00
44920;BME280;30655;53.094;6.072;2022-11-30T00:37:20;102444.94;;;5.47;100.00
44920;BME280;30655;53.094;6.072;2022-11-30T00:39:49;102396.28;;;5.23;100.00
44920;BME280;30655;53.094;6.072;2022-11-30T00:42:20;102245.59;;;4.44;100.00
44920;BME280;30655;53.094;6.072;2022-11-30T00:46:11;102223.25;;;4.30;100.00
44920;BME280;30655;53.094;6.072;2022-11-30T00:54:50;102279.19;;;4.67;100.00
44920;BME280;30655;53.094;6.072;2022-11-30T00:57:18;102364.97;;;5.30;100.00
44920;BME280;30655;53.094;6.072;2022-11-30T00:59:58;102336.72;;;5.27;100.00
44920;BME280;30655;53.094;6.072;2022-11-30T01:02:32;102361.41;;;5.50;100.00
44920;BME280;30655;53.094;6.072;2022-11-30T01:05:11;102403.06;;;5.81;100.00
44920;BME280;30655;53.094;6.072;2022-11-30T01:08:06;102269.47;;;4.94;100.00
44920;BME280;30655;53.094;6.072;2022-11-30T01:10:48;102366.81;;;5.63;100.00
44920;BME280;30655;53.094;6.072;2022-11-30T01:13:40;102256.97;;;5.01;100.00
44920;BME280;30655;53.094;6.072;2022-11-30T01:16:29;102262.75;;;5.05;100.00
44920;BME280;30655;53.094;6.072;2022-11-30T01:19:15;102419.94;;;6.09;100.00
44920;BME280;30655;53.094;6.072;2022-11-30T01:21:47;102371.03;;;5.73;100.00
44920;BME280;30655;53.094;6.072;2022-11-30T01:24:31;102456.78;;;6.22;100.00
44920;BME280;30655;53.094;6.072;2022-11-30T01:27:14;102378.91;;;5.81;100.00
44920;BME280;30655;53.094;6.072;2022-11-30T01:29:44;102375.38;;;5.80;100.00
44920;BME280;30655;53.094;6.072;2022-11-30T01:35:31;102443.53;;;6.20;100.00
44920;BME280;30655;53.094;6.072;2022-11-30T01:38:31;102460.31;;;6.29;100.00
44920;BME280;30655;53.094;6.072;2022-11-30T01:47:58;102248.63;;;5.17;100.00
44920;BME280;30655;53.094;6.072;2022-11-30T01:50:52;102264.09;;;5.22;100.00
44920;BME280;30655;53.094;6.072;2022-11-30T02:00:11;102268.50;;;5.36;100.00
44920;BME280;30655;53.094;6.072;2022-11-30T02:03:13;102250.13;;;5.33;100.00
44920;BME280;30655;53.094;6.072;2022-11-30T02:06:42;102388.41;;;6.24;100.00
44920;BME280;30655;53.094;6.072;2022-11-30T02:13:08;102406.22;;;6.38;100.00
44920;BME280;30655;53.094;6.072;2022-11-30T02:16:09;102325.31;;;5.94;100.00
44920;BME280;30655;53.094;6.072;2022-11-30T02:19:29;102236.75;;;5.40;100.00
44920;BME280;30655;53.094;6.072;2022-11-30T02:23:20;102336.91;;;6.01;100.00
44920;BME280;30655;53.094;6.072;2022-11-30T02:26:26;102285.34;;;5.64;100.00
44920;BME280;30655;53.094;6.072;2022-11-30T02:35:45;102243.97;;;5.39;100.00
44920;BME280;30655;53.094;6.072;2022-11-30T02:38:53;102436.66;;;6.59;100.00
44920;BME280;30655;53.094;6.072;2022-11-30T02:41:47;102318.63;;;5.77;100.00
44920;BME280;30655;53.094;6.072;2022-11-30T02:47:35;102244.09;;;5.25;100.00
44920;BME280;30655;53.094;6.072;2022-11-30T02:50:41;102368.25;;;5.94;100.00
44920;BME280;30655;53.094;6.072;2022-11-30T02:53:31;102281.63;;;5.25;100.00
44920;BME280;30655;53.094;6.072;2022-11-30T02:56:08;102438.00;;;6.28;100.00
44920;BME280;30655;53.094;6.072;2022-11-30T02:58:50;102286.63;;;5.28;100.00
44920;BME280;30655;53.094;6.072;2022-11-30T03:01:20;102460.47;;;6.21;100.00
44920;BME280;30655;53.094;6.072;2022-11-30T03:03:52;102395.09;;;5.87;100.00
44920;BME280;30655;53.094;6.072;2022-11-30T03:09:35;102255.25;;;4.94;100.00
44920;BME280;30655;53.094;6.072;2022-11-30T03:12:31;102219.44;;;4.67;100.00
44920;BME280;30655;53.094;6.072;2022-11-30T03:15:26;102242.72;;;4.66;100.00
44920;BME280;30655;53.094;6.072;2022-11-30T03:18:10;102286.72;;;4.85;100.00
44920;BME280;30655;53.094;6.072;2022-11-30T03:20:53;102354.84;;;5.25;100.00
44920;BME280;30655;53.094;6.072;2022-11-30T03:23:45;102267.97;;;4.57;100.00
44920;BME280;30655;53.094;6.072;2022-11-30T03:26:16;102360.72;;;5.14;100.00
44920;BME280;30655;53.094;6.072;2022-11-30T03:28:44;102349.25;;;4.92;100.00
44920;BME280;30655;53.094;6.072;2022-11-30T03:31:26;102252.09;;;4.34;100.00
44920;BME280;30655;53.094;6.072;2022-11-30T03:34:16;102369.75;;;5.06;100.00
44920;BME280;30655;53.094;6.072;2022-11-30T03:37:11;102272.69;;;4.34;100.00
44920;BME280;30655;53.094;6.072;2022-11-30T03:40:16;102241.63;;;4.12;100.00
44920;BME280;30655;53.094;6.072;2022-11-30T03:42:51;102417.22;;;5.12;100.00
44920;BME280;30655;53.094;6.072;2022-11-30T03:45:47;102302.47;;;4.46;100.00
44920;BME280;30655;53.094;6.072;2022-11-30T03:48:41;102376.63;;;4.88;100.00
44920;BME280;30655;53.094;6.072;2022-11-30T03:51:25;102260.91;;;4.07;100.00
44920;BME280;30655;53.094;6.072;2022-11-30T03:54:13;102354.22;;;4.74;100.00
44920;BME280;30655;53.094;6.072;2022-11-30T03:57:25;102449.06;;;5.22;100.00
44920;BME280;30655;53.094;6.072;2022-11-30T04:00:25;102253.56;;;3.95;100.00
44920;BME280;30655;53.094;6.072;2022-11-30T04:03:17;102457.22;;;5.14;100.00
44920;BME280;30655;53.094;6.072;2022-11-30T04:05:46;102291.81;;;4.10;100.00
44920;BME280;30655;53.094;6.072;2022-11-30T04:11:56;102359.66;;;4.38;100.00
44920;BME280;30655;53.094;6.072;2022-11-30T04:18:25;102477.28;;;4.97;100.00
44920;BME280;30655;53.094;6.072;2022-11-30T04:24:27;102439.34;;;4.57;100.00
44920;BME280;30655;53.094;6.072;2022-11-30T04:27:48;102297.53;;;3.71;100.00
44920;BME280;30655;53.094;6.072;2022-11-30T04:30:54;102422.75;;;4.47;100.00
44920;BME280;30655;53.094;6.072;2022-11-30T04:33:58;102484.84;;;4.93;100.00
44920;BME280;30655;53.094;6.072;2022-11-30T04:36:44;102429.16;;;4.67;100.00
44920;BME280;30655;53.094;6.072;2022-11-30T04:39:36;102289.81;;;3.61;100.00
44920;BME280;30655;53.094;6.072;2022-11-30T04:42:22;102477.91;;;4.78;100.00
44920;BME280;30655;53.094;6.072;2022-11-30T04:44:52;102300.50;;;3.61;100.00
44920;BME280;30655;53.094;6.072;2022-11-30T04:47:37;102405.50;;;4.35;100.00
44920;BME280;30655;53.094;6.072;2022-11-30T04:50:35;102271.66;;;3.42;100.00
44920;BME280;30655;53.094;6.072;2022-11-30T04:57:04;102446.28;;;4.52;100.00
44920;BME280;30655;53.094;6.072;2022-11-30T04:59:46;102292.75;;;3.52;100.00
44920;BME280;30655;53.094;6.072;2022-11-30T05:05:38;102517.69;;;4.81;100.00
44920;BME280;30655;53.094;6.072;2022-11-30T05:08:20;102522.28;;;4.87;100.00
44920;BME280;30655;53.094;6.072;2022-11-30T05:11:14;102416.25;;;4.20;100.00
44920;BME280;30655;53.094;6.072;2022-11-30T05:17:37;102347.19;;;3.95;100.00
44920;BME280;30655;53.094;6.072;2022-11-30T05:26:41;102350.69;;;3.95;100.00
44920;BME280;30655;53.094;6.072;2022-11-30T05:32:54;102453.25;;;4.67;100.00
44920;BME280;30655;53.094;6.072;2022-11-30T05:35:34;102454.81;;;4.76;100.00
44920;BME280;30655;53.094;6.072;2022-11-30T05:38:02;102325.03;;;4.01;100.00
44920;BME280;30655;53.094;6.072;2022-11-30T05:40:31;102416.00;;;4.51;100.00
44920;BME280;30655;53.094;6.072;2022-11-30T05:43:07;102521.28;;;5.30;100.00
44920;BME280;30655;53.094;6.072;2022-11-30T05:45:42;102445.63;;;4.86;100.00
44920;BME280;30655;53.094;6.072;2022-11-30T05:48:11;102505.59;;;5.27;100.00
44920;BME280;30655;53.094;6.072;2022-11-30T05:53:33;102544.75;;;5.43;100.00
44920;BME280;30655;53.094;6.072;2022-11-30T05:59:33;102356.63;;;4.26;100.00
44920;BME280;30655;53.094;6.072;2022-11-30T06:02:06;102457.94;;;5.01;100.00
44920;BME280;30655;53.094;6.072;2022-11-30T06:05:19;102319.84;;;4.14;100.00
44920;BME280;30655;53.094;6.072;2022-11-30T06:08:06;102505.59;;;5.27;100.00
44920;BME280;30655;53.094;6.072;2022-11-30T06:13:53;102481.91;;;5.09;100.00
44920;BME280;30655;53.094;6.072;2022-11-30T06:16:24;102417.75;;;4.80;100.00
44920;BME280;30655;53.094;6.072;2022-11-30T06:19:11;102549.22;;;5.63;100.00
44920;BME280;30655;53.094;6.072;2022-11-30T06:21:49;102503.44;;;5.37;100.00
44920;BME280;30655;53.094;6.072;2022-11-30T06:24:36;102445.94;;;4.97;100.00
44920;BME280;30655;53.094;6.072;2022-11-30T06:27:20;102559.59;;;5.67;100.00
44920;BME280;30655;53.094;6.072;2022-11-30T06:30:14;102453.44;;;5.08;100.00
44920;BME280;30655;53.094;6.072;2022-11-30T06:33:00;102542.31;;;5.76;100.00
44920;BME280;30655;53.094;6.072;2022-11-30T06:35:26;102496.75;;;5.54;100.00
44920;BME280;30655;53.094;6.072;2022-11-30T06:37:55;102494.50;;;5.58;100.00
44920;BME280;30655;53.094;6.072;2022-11-30T06:40:22;102560.66;;;5.93;100.00
44920;BME280;30655;53.094;6.072;2022-11-30T06:42:49;102546.03;;;5.96;100.00
44920;BME280;30655;53.094;6.072;2022-11-30T06:45:15;102546.63;;;5.98;100.00
44920;BME280;30655;53.094;6.072;2022-11-30T06:47:44;102555.34;;;6.00;100.00
44920;BME280;30655;53.094;6.072;2022-11-30T06:50:12;102532.75;;;5.88;100.00
44920;BME280;30655;53.094;6.072;2022-11-30T06:52:39;102554.56;;;6.06;100.00
44920;BME280;30655;53.094;6.072;2022-11-30T06:55:06;102532.41;;;5.97;100.00
44920;BME280;30655;53.094;6.072;2022-11-30T06:57:33;102558.50;;;6.10;100.00
44920;BME280;30655;53.094;6.072;2022-11-30T07:00:00;102558.09;;;6.13;100.00
44920;BME280;30655;53.094;6.072;2022-11-30T07:02:27;102563.09;;;6.16;100.00
44920;BME280;30655;53.094;6.072;2022-11-30T07:04:54;102554.63;;;6.19;100.00
44920;BME280;30655;53.094;6.072;2022-11-30T07:07:22;102565.00;;;6.22;100.00
44920;BME280;30655;53.094;6.072;2022-11-30T07:09:51;102569.13;;;6.25;100.00
44920;BME280;30655;53.094;6.072;2022-11-30T07:12:44;102572.47;;;6.27;100.00
44920;BME280;30655;53.094;6.072;2022-11-30T07:19:56;102427.47;;;5.30;100.00
44920;BME280;30655;53.094;6.072;2022-11-30T07:26:33;102591.09;;;6.35;100.00
44920;BME280;30655;53.094;6.072;2022-11-30T07:32:59;102580.41;;;6.41;100.00
44920;BME280;30655;53.094;6.072;2022-11-30T07:36:20;102495.41;;;5.93;100.00
44920;BME280;30655;53.094;6.072;2022-11-30T07:40:17;102412.50;;;5.42;100.00
44920;BME280;30655;53.094;6.072;2022-11-30T07:56:15;102452.06;;;5.61;100.00
44920;BME280;30655;53.094;6.072;2022-11-30T07:59:29;102557.25;;;6.40;100.00
44920;BME280;30655;53.094;6.072;2022-11-30T08:02:25;102531.59;;;6.31;100.00
44920;BME280;30655;53.094;6.072;2022-11-30T08:05:40;102456.06;;;5.79;100.00
44920;BME280;30655;53.094;6.072;2022-11-30T08:08:46;102428.94;;;5.60;100.00
44920;BME280;30655;53.094;6.072;2022-11-30T08:25:48;102440.88;;;5.30;100.00
44920;BME280;30655;53.094;6.072;2022-11-30T08:31:38;102550.03;;;6.07;100.00
44920;BME280;30655;53.094;6.072;2022-11-30T08:35:10;102555.66;;;6.18;100.00
44920;BME280;30655;53.094;6.072;2022-11-30T08:37:52;102553.91;;;6.32;100.00
44920;BME280;30655;53.094;6.072;2022-11-30T08:40:39;102602.03;;;6.68;100.00
44920;BME280;30655;53.094;6.072;2022-11-30T08:43:37;102444.03;;;5.68;100.00
44920;BME280;30655;53.094;6.072;2022-11-30T08:46:24;102583.78;;;6.57;100.00
44920;BME280;30655;53.094;6.072;2022-11-30T08:49:25;102480.94;;;5.87;100.00
44920;BME280;30655;53.094;6.072;2022-11-30T08:52:04;102599.50;;;6.60;100.00
44920;BME280;30655;53.094;6.072;2022-11-30T08:54:59;102493.44;;;6.08;100.00
44920;BME280;30655;53.094;6.072;2022-11-30T08:57:39;102594.41;;;6.71;100.00
44920;BME280;30655;53.094;6.072;2022-11-30T09:11:07;102674.22;;;7.12;100.00
44920;BME280;30655;53.094;6.072;2022-11-30T09:13:44;102591.69;;;6.65;100.00
44920;BME280;30655;53.094;6.072;2022-11-30T09:16:21;102562.19;;;6.37;100.00
44920;BME280;30655;53.094;6.072;2022-11-30T09:19:48;102579.63;;;6.54;100.00
44920;BME280;30655;53.094;6.072;2022-11-30T09:22:30;102582.97;;;6.63;100.00
44920;BME280;30655;53.094;6.072;2022-11-30T09:25:18;102677.38;;;7.28;100.00
44920;BME280;30655;53.094;6.072;2022-11-30T09:28:13;102641.31;;;7.10;100.00
44920;BME280;30655;53.094;6.072;2022-11-30T09:31:28;102587.84;;;6.80;100.00
44920;BME280;30655;53.094;6.072;2022-11-30T09:34:17;102685.88;;;7.39;100.00
44920;BME280;30655;53.094;6.072;2022-11-30T09:40:53;102580.28;;;6.63;100.00
44920;BME280;30655;53.094;6.072;2022-11-30T09:44:14;102680.94;;;7.42;100.00
44920;BME280;30655;53.094;6.072;2022-11-30T09:51:07;102639.44;;;7.10;100.00
44920;BME280;30655;53.094;6.072;2022-11-30T09:57:54;102482.78;;;6.21;100.00
44920;BME280;30655;53.094;6.072;2022-11-30T10:55:13;102503.19;;;6.57;100.00
44920;BME280;30655;53.094;6.072;2022-11-30T10:58:11;102525.22;;;6.86;100.00
44920;BME280;30655;53.094;6.072;2022-11-30T11:02:12;102682.28;;;7.86;100.00
44920;BME280;30655;53.094;6.072;2022-11-30T11:19:11;102502.25;;;6.84;100.00
44920;BME280;30655;53.094;6.072;2022-11-30T11:24:43;102674.03;;;8.00;100.00
44920;BME280;30655;53.094;6.072;2022-11-30T11:29:28;102650.81;;;7.86;100.00
44920;BME280;30655;53.094;6.072;2022-11-30T11:33:37;102703.44;;;8.08;100.00
44920;BME280;30655;53.094;6.072;2022-11-30T11:39:57;102653.31;;;7.81;100.00
44920;BME280;30655;53.094;6.072;2022-11-30T11:42:32;102688.94;;;8.09;100.00
44920;BME280;30655;53.094;6.072;2022-11-30T11:45:02;102681.47;;;8.05;100.00
44920;BME280;30655;53.094;6.072;2022-11-30T11:47:36;102540.19;;;7.15;100.00
44920;BME280;30655;53.094;6.072;2022-11-30T11:50:20;102693.06;;;8.12;100.00
44920;BME280;30655;53.094;6.072;2022-11-30T11:53:18;102702.63;;;8.14;100.00
44920;BME280;30655;53.094;6.072;2022-11-30T11:55:48;102696.63;;;8.19;100.00
44920;BME280;30655;53.094;6.072;2022-11-30T11:58:23;102681.50;;;8.11;100.00
44920;BME280;30655;53.094;6.072;2022-11-30T12:00:54;102686.03;;;8.17;100.00
44920;BME280;30655;53.094;6.072;2022-11-30T12:03:49;102698.06;;;8.21;100.00
44920;BME280;30655;53.094;6.072;2022-11-30T12:06:20;102689.78;;;8.23;100.00
44920;BME280;30655;53.094;6.072;2022-11-30T12:08:50;102696.41;;;8.20;100.00
44920;BME280;30655;53.094;6.072;2022-11-30T12:11:24;102697.25;;;8.21;100.00
44920;BME280;30655;53.094;6.072;2022-11-30T12:14:01;102538.13;;;7.24;100.00
44920;BME280;30655;53.094;6.072;2022-11-30T12:16:47;102514.53;;;7.06;100.00
44920;BME280;30655;53.094;6.072;2022-11-30T12:19:35;102622.44;;;7.77;100.00
44920;BME280;30655;53.094;6.072;2022-11-30T12:22:41;102545.13;;;7.18;100.00
44920;BME280;30655;53.094;6.072;2022-11-30T12:25:29;102636.09;;;7.75;100.00
44920;BME280;30655;53.094;6.072;2022-11-30T12:28:26;102562.75;;;7.34;100.00
44920;BME280;30655;53.094;6.072;2022-11-30T12:31:10;102648.34;;;7.91;100.00
44920;BME280;30655;53.094;6.072;2022-11-30T12:34:07;102663.03;;;7.95;100.00
44920;BME280;30655;53.094;6.072;2022-11-30T12:36:47;102581.19;;;7.44;100.00
44920;BME280;30655;53.094;6.072;2022-11-30T12:39:31;102555.50;;;7.21;100.00
44920;BME280;30655;53.094;6.072;2022-11-30T12:42:22;102562.09;;;7.19;100.00
44920;BME280;30655;53.094;6.072;2022-11-30T12:44:59;102562.13;;;7.25;100.00
44920;BME280;30655;53.094;6.072;2022-11-30T12:47:47;102648.31;;;7.78;100.00
44920;BME280;30655;53.094;6.072;2022-11-30T12:50:48;102701.56;;;8.02;100.00
44920;BME280;30655;53.094;6.072;2022-11-30T12:53:41;102686.44;;;8.08;100.00
44920;BME280;30655;53.094;6.072;2022-11-30T12:56:31;102538.91;;;7.05;100.00
44920;BME280;30655;53.094;6.072;2022-11-30T12:59:26;102522.53;;;6.93;100.00
44920;BME280;30655;53.094;6.072;2022-11-30T13:02:35;102527.06;;;6.92;100.00
44920;BME280;30655;53.094;6.072;2022-11-30T13:05:31;102696.16;;;7.89;100.00
44920;BME280;30655;53.094;6.072;2022-11-30T13:11:28;102709.84;;;7.94;100.00
44920;BME280;30655;53.094;6.072;2022-11-30T13:14:13;102594.59;;;7.24;100.00
44920;BME280;30655;53.094;6.072;2022-11-30T13:17:14;102535.09;;;6.79;100.00
44920;BME280;30655;53.094;6.072;2022-11-30T13:20:37;102561.00;;;6.87;100.00
44920;BME280;30655;53.094;6.072;2022-11-30T13:23:46;102541.50;;;6.72;100.00
44920;BME280;30655;53.094;6.072;2022-11-30T13:26:52;102625.03;;;7.31;100.00
44920;BME280;30655;53.094;6.072;2022-11-30T13:49:58;102671.03;;;7.49;100.00
44920;BME280;30655;53.094;6.072;2022-11-30T13:56:42;102546.03;;;6.78;100.00
44920;BME280;30655;53.094;6.072;2022-11-30T13:59:47;102528.88;;;6.66;99.68
44920;BME280;30655;53.094;6.072;2022-11-30T14:25:19;102727.78;;;7.61;98.38
44920;BME280;30655;53.094;6.072;2022-11-30T14:28:42;102543.03;;;6.46;98.65
44920;BME280;30655;53.094;6.072;2022-11-30T14:31:48;102676.34;;;7.29;98.97
44920;BME280;30655;53.094;6.072;2022-11-30T14:34:48;102548.41;;;6.46;98.89
44920;BME280;30655;53.094;6.072;2022-11-30T14:41:15;102558.75;;;6.49;98.76
44920;BME280;30655;53.094;6.072;2022-11-30T14:44:16;102574.88;;;6.49;98.65
44920;BME280;30655;53.094;6.072;2022-11-30T14:47:19;102530.66;;;6.18;98.51
44920;BME280;30655;53.094;6.072;2022-11-30T14:50:03;102660.13;;;7.10;99.24
44920;BME280;30655;53.094;6.072;2022-11-30T14:54:29;102567.59;;;6.43;98.20
44920;BME280;30655;53.094;6.072;2022-11-30T15:02:49;102654.13;;;6.67;98.97
44920;BME280;30655;53.094;6.072;2022-11-30T15:05:46;102723.63;;;7.11;99.35
44920;BME280;30655;53.094;6.072;2022-11-30T15:08:33;102706.47;;;7.12;99.25
44920;BME280;30655;53.094;6.072;2022-11-30T15:21:05;102681.13;;;6.93;99.72
44920;BME280;30655;53.094;6.072;2022-11-30T15:23:47;102756.84;;;7.38;100.00
44920;BME280;30655;53.094;6.072;2022-11-30T15:26:35;102749.63;;;7.38;99.46
44920;BME280;30655;53.094;6.072;2022-11-30T15:39:29;102609.84;;;6.28;99.87
44920;BME280;30655;53.094;6.072;2022-11-30T15:45:06;102720.00;;;6.90;99.72
44920;BME280;30655;53.094;6.072;2022-11-30T15:47:40;102769.59;;;7.22;100.00
44920;BME280;30655;53.094;6.072;2022-11-30T15:50:34;102765.06;;;7.23;100.00
44920;BME280;30655;53.094;6.072;2022-11-30T15:53:28;102725.44;;;6.97;99.62
44920;BME280;30655;53.094;6.072;2022-11-30T15:55:59;102572.34;;;6.07;100.00
44920;BME280;30655;53.094;6.072;2022-11-30T15:58:33;102756.97;;;7.16;99.51
44920;BME280;30655;53.094;6.072;2022-11-30T16:01:06;102748.84;;;7.10;99.86
44920;BME280;30655;53.094;6.072;2022-11-30T16:03:45;102596.41;;;6.28;99.84
44920;BME280;30655;53.094;6.072;2022-11-30T16:06:25;102801.78;;;7.37;100.00
44920;BME280;30655;53.094;6.072;2022-11-30T16:08:57;102592.66;;;6.23;99.47
44920;BME280;30655;53.094;6.072;2022-11-30T16:11:27;102621.72;;;6.40;99.45
44920;BME280;30655;53.094;6.072;2022-11-30T16:13:54;102693.84;;;6.78;99.65
44920;BME280;30655;53.094;6.072;2022-11-30T16:16:23;102618.69;;;6.22;99.82
44920;BME280;30655;53.094;6.072;2022-11-30T16:18:51;102656.09;;;6.52;99.87
44920;BME280;30655;53.094;6.072;2022-11-30T16:21:18;102778.97;;;7.26;100.00
44920;BME280;30655;53.094;6.072;2022-11-30T16:23:47;102769.78;;;7.14;99.61
44920;BME280;30655;53.094;6.072;2022-11-30T16:26:16;102769.78;;;7.14;99.98
44920;BME280;30655;53.094;6.072;2022-11-30T16:29:03;102782.78;;;7.11;100.00
44920;BME280;30655;53.094;6.072;2022-11-30T16:31:33;102757.28;;;7.00;100.00
44920;BME280;30655;53.094;6.072;2022-11-30T16:34:00;102788.66;;;7.21;100.00
44920;BME280;30655;53.094;6.072;2022-11-30T16:36:28;102756.41;;;6.93;100.00
44920;BME280;30655;53.094;6.072;2022-11-30T16:38:56;102791.69;;;7.11;100.00
44920;BME280;30655;53.094;6.072;2022-11-30T16:41:25;102790.50;;;7.20;100.00
44920;BME280;30655;53.094;6.072;2022-11-30T16:43:53;102796.31;;;7.24;100.00
44920;BME280;30655;53.094;6.072;2022-11-30T16:46:21;102779.28;;;7.10;100.00
44920;BME280;30655;53.094;6.072;2022-11-30T16:48:49;102797.97;;;7.25;100.00
44920;BME280;30655;53.094;6.072;2022-11-30T16:51:19;102791.22;;;7.08;100.00
44920;BME280;30655;53.094;6.072;2022-11-30T16:53:47;102801.22;;;7.14;100.00
44920;BME280;30655;53.094;6.072;2022-11-30T16:56:15;102791.69;;;7.11;100.00
44920;BME280;30655;53.094;6.072;2022-11-30T16:58:42;102778.78;;;7.00;100.00
44920;BME280;30655;53.094;6.072;2022-11-30T17:01:12;102813.69;;;7.21;100.00
44920;BME280;30655;53.094;6.072;2022-11-30T17:03:40;102816.75;;;7.18;100.00
44920;BME280;30655;53.094;6.072;2022-11-30T17:06:13;102813.69;;;7.21;100.00
44920;BME280;30655;53.094;6.072;2022-11-30T17:08:41;102818.81;;;7.16;100.00
44920;BME280;30655;53.094;6.072;2022-11-30T17:11:14;102771.66;;;6.86;100.00
44920;BME280;30655;53.094;6.072;2022-11-30T17:13:43;102815.91;;;7.11;100.00
44920;BME280;30655;53.094;6.072;2022-11-30T17:16:12;102842.22;;;7.22;100.00
44920;BME280;30655;53.094;6.072;2022-11-30T17:18:39;102829.34;;;7.18;100.00
44920;BME280;30655;53.094;6.072;2022-11-30T17:21:11;102829.81;;;7.21;100.00
44920;BME280;30655;53.094;6.072;2022-11-30T17:23:38;102830.25;;;7.25;100.00
44920;BME280;30655;53.094;6.072;2022-11-30T17:26:05;102816.13;;;7.16;100.00
44920;BME280;30655;53.094;6.072;2022-11-30T17:28:31;102835.22;;;7.28;100.00
44920;BME280;30655;53.094;6.072;2022-11-30T17:31:01;102832.28;;;7.23;100.00
44920;BME280;30655;53.094;6.072;2022-11-30T17:33:30;102838.97;;;7.27;100.00
44920;BME280;30655;53.094;6.072;2022-11-30T17:35:57;102841.44;;;7.28;100.00
44920;BME280;30655;53.094;6.072;2022-11-30T17:38:24;102843.09;;;7.29;100.00
44920;BME280;30655;53.094;6.072;2022-11-30T17:40:51;102847.03;;;7.27;100.00
44920;BME280;30655;53.094;6.072;2022-11-30T17:43:18;102816.91;;;7.10;100.00
44920;BME280;30655;53.094;6.072;2022-11-30T17:45:47;102673.09;;;6.10;100.00
44920;BME280;30655;53.094;6.072;2022-11-30T17:48:25;102659.06;;;6.08;100.00
44920;BME280;30655;53.094;6.072;2022-11-30T17:50:52;102782.53;;;6.78;100.00
44920;BME280;30655;53.094;6.072;2022-11-30T17:53:20;102676.44;;;6.12;100.00
44920;BME280;30655;53.094;6.072;2022-11-30T17:56:10;102856.31;;;7.24;100.00
44920;BME280;30655;53.094;6.072;2022-11-30T17:58:47;102801.84;;;6.88;100.00
44920;BME280;30655;53.094;6.072;2022-11-30T18:04:28;102857.09;;;7.18;100.00
44920;BME280;30655;53.094;6.072;2022-11-30T18:07:03;102789.34;;;6.74;100.00
44920;BME280;30655;53.094;6.072;2022-11-30T18:09:31;102855.41;;;7.17;100.00
44920;BME280;30655;53.094;6.072;2022-11-30T18:12:08;102691.47;;;6.06;100.00
44920;BME280;30655;53.094;6.072;2022-11-30T18:14:34;102861.59;;;7.11;100.00
44920;BME280;30655;53.094;6.072;2022-11-30T18:17:01;102732.34;;;6.29;100.00
44920;BME280;30655;53.094;6.072;2022-11-30T18:19:31;102850.59;;;7.06;100.00
44920;BME280;30655;53.094;6.072;2022-11-30T18:21:58;102758.16;;;6.52;100.00
44920;BME280;30655;53.094;6.072;2022-11-30T18:24:25;102751.22;;;6.36;100.00
44920;BME280;30655;53.094;6.072;2022-11-30T18:26:52;102877.41;;;7.21;100.00
44920;BME280;30655;53.094;6.072;2022-11-30T18:29:21;102670.91;;;5.92;100.00
44920;BME280;30655;53.094;6.072;2022-11-30T18:31:51;102705.91;;;6.05;100.00
44920;BME280;30655;53.094;6.072;2022-11-30T18:34:17;102844.66;;;6.89;100.00
44920;BME280;30655;53.094;6.072;2022-11-30T18:36:52;102881.50;;;7.17;100.00
44920;BME280;30655;53.094;6.072;2022-11-30T18:39:20;102881.09;;;7.20;100.00
44920;BME280;30655;53.094;6.072;2022-11-30T18:41:47;102881.53;;;7.23;100.00
44920;BME280;30655;53.094;6.072;2022-11-30T18:44:54;102693.25;;;5.99;100.00
44920;BME280;30655;53.094;6.072;2022-11-30T18:48:02;102733.75;;;6.25;100.00
44920;BME280;30655;53.094;6.072;2022-11-30T18:51:27;102894.75;;;7.18;100.00
44920;BME280;30655;53.094;6.072;2022-11-30T18:58:11;102753.97;;;6.42;100.00
44920;BME280;30655;53.094;6.072;2022-11-30T19:11:41;102680.56;;;5.72;100.00
44920;BME280;30655;53.094;6.072;2022-11-30T19:21:36;102904.81;;;7.10;100.00
44920;BME280;30655;53.094;6.072;2022-11-30T19:24:29;102782.44;;;6.37;100.00
44920;BME280;30655;53.094;6.072;2022-11-30T19:27:20;102705.25;;;5.82;100.00
44920;BME280;30655;53.094;6.072;2022-11-30T19:30:09;102902.78;;;7.12;100.00
44920;BME280;30655;53.094;6.072;2022-11-30T19:33:25;102717.91;;;5.88;100.00
44920;BME280;30655;53.094;6.072;2022-11-30T19:40:35;102860.88;;;6.75;100.00
44920;BME280;30655;53.094;6.072;2022-11-30T19:43:52;102902.66;;;6.99;100.00
44920;BME280;30655;53.094;6.072;2022-11-30T19:47:14;102819.97;;;6.52;100.00
44920;BME280;30655;53.094;6.072;2022-11-30T19:49:48;102901.63;;;7.00;100.00
44920;BME280;30655;53.094;6.072;2022-11-30T19:53:22;102763.44;;;6.17;100.00
44920;BME280;30655;53.094;6.072;2022-11-30T19:56:39;102913.28;;;7.07;100.00
44920;BME280;30655;53.094;6.072;2022-11-30T19:59:57;102918.19;;;7.03;100.00